Hlavní strana
METAR-TAF:

METAR-TAF

Letiště :

Mezinárodní letiště Gibraltar

Gibraltar, Gibraltar

zeměpisná šířka: 36-09N, zeměpisná délka: 005-21W, výška: 5 m

Aktuální stav počasí

Zpráva byla vytvořena před 42 minutami, v 04:50 UTC
Jižní vítr 4 kt
Teplota 19°C
Vlhkost vzduchu 78%
Tlak 1008 hPa
Viditelnost 10 km a více
Skoro jasno ve výšce 1400 ft
Oblačno až skoro zataženo ve výšce 6000 ft
dešťové přeháňky

METAR: LXGB 180450Z 17004KT 9999 SHRA FEW014 BKN060 19/15 Q1008

Čas: 07:32 (05:32 UTC)

Předpověď počasí

Zpráva byla vytvořena před 13 hodinami a 16 minutami, v 16:16 UTC
Předpověď platná od 17 v 18 UTC do 17 v 22 UTC
Jihojihozápadní vítr 8 kt
Viditelnost 10 km a více
Skoro jasno ve výšce 3500 ft
Pravděpodobnost 30% :
Dočasný
od 17 v 20 UTC do 17 v 22 UTC
Polojasno ve výšce 2400 ft

TAF: LXGB 171616Z 1718/1722 21008KT 9999 FEW035 PROB30 TEMPO 1720/1722 SCT024

Stav a předpovědi počasí z více než 4 000 letišť (zprávy METAR a TAF).

Červené a žluté tečky na mapě představují dostupné meteorologické stanice.

Když kurzor umístíte na tečku, zobrazí se název stanice.

Pak kliknutím zobrazíte stav a předpověď počasí.

Chcete-li změnit mapu, kliknutím na zelené tlačítko se znaménkem +mapu přiblížíte, kliknutím na zelené tlačítko se znaménkem – mapu oddálíte a kliknutím na zelené šipky přejdete na sousední mapy.


METAR-TAF: